Time;durP1;ratioP1;P1;durP2;ratioP2;P2;SDS_P1;SDS_P2;PMS_P1;PMS_P2;Temp;Humidity;BMP_temperature;BMP_pressure;BME280_temperature;BME280_humidity;BME280_pressure;Samples;Min_cycle;Max_cycle;Signal;HPM_P1;HPM_P2
2022/12/04 00:01:26;;;;;;;4.90;4.60;;;;;;;3.36;91.65;94981.41;4364405;32;20371;-61
2022/12/04 00:03:56;;;;;;;3.50;3.30;;;;;;;3.21;92.05;94994.47;4340208;32;20280;-61
2022/12/04 00:06:22;;;;;;;4.10;3.37;;;;;;;3.53;96.74;94983.06;4363066;32;20366;-60
2022/12/04 00:08:50;;;;;;;3.50;3.20;;;;;;;3.80;91.87;94986.28;4361071;32;20295;-61
2022/12/04 00:11:22;;;;;;;2.87;2.67;;;;;;;3.60;90.16;94988.84;4366654;32;20292;-60
2022/12/04 00:13:48;;;;;;;3.23;2.97;;;;;;;3.33;90.07;94984.53;4368280;32;20272;-60
2022/12/04 00:16:22;;;;;;;4.27;3.97;;;;;;;3.31;90.80;94986.66;4372985;32;20286;-60
2022/12/04 00:18:47;;;;;;;4.60;4.20;;;;;;;3.51;90.18;94993.03;4354204;32;20273;-60
2022/12/04 00:21:14;;;;;;;3.83;3.63;;;;;;;3.25;90.54;94982.44;4365639;32;20354;-60
2022/12/04 00:23:41;;;;;;;3.50;3.30;;;;;;;3.53;90.16;94996.19;4356855;32;20188;-60
2022/12/04 00:26:16;;;;;;;2.40;2.30;;;;;;;3.49;90.19;94987.25;4335802;32;20393;-60
2022/12/04 00:28:43;;;;;;;6.27;4.33;;;;;;;3.58;89.30;94978.63;4343395;32;20362;-58
2022/12/04 00:31:31;;;;;;;1.83;1.83;;;;;;;4.86;97.65;94984.75;4353779;32;20334;-59
2022/12/04 00:33:57;;;;;;;2.33;2.23;;;;;;;6.00;95.10;94969.91;4329408;32;20277;-60
2022/12/04 00:36:26;;;;;;;3.07;2.87;;;;;;;5.17;85.71;94975.78;4323743;32;20291;-59
2022/12/04 00:38:51;;;;;;;4.10;3.80;;;;;;;4.64;85.04;94975.34;4329347;32;20272;-60
2022/12/04 00:41:20;;;;;;;3.63;3.40;;;;;;;4.33;85.90;94986.91;4370223;32;20285;-59
2022/12/04 00:43:45;;;;;;;3.53;3.23;;;;;;;4.33;86.63;94986.91;4353001;32;20196;-60
2022/12/04 00:46:13;;;;;;;5.93;3.57;;;;;;;4.38;86.00;94990.28;4338755;32;20407;-60
2022/12/04 00:48:42;;;;;;;3.40;3.10;;;;;;;3.91;87.61;94987.91;4365292;32;20186;-59
2022/12/04 00:51:11;;;;;;;4.90;2.87;;;;;;;3.52;89.29;95005.09;4358767;32;20315;-60
2022/12/04 00:53:38;;;;;;;3.43;3.23;;;;;;;3.78;89.24;94998.88;4358117;32;20360;-60
2022/12/04 00:56:20;;;;;;;3.13;2.93;;;;;;;4.01;87.96;94985.28;4369965;32;20272;-65
2022/12/04 00:58:45;;;;;;;3.63;3.43;;;;;;;3.86;88.23;94989.72;4310706;32;20298;-59
2022/12/04 01:01:14;;;;;;;3.40;2.30;;;;;;;3.58;89.06;94990.94;4350277;32;20390;-60
2022/12/04 01:03:41;;;;;;;6.23;3.27;;;;;;;3.60;89.31;94984.41;4328496;32;20263;-59
2022/12/04 01:06:34;;;;;;;2.50;2.40;;;;;;;3.88;88.55;94979.75;4367724;32;20334;-59
2022/12/04 01:09:03;;;;;;;1.57;1.57;;;;;;;3.71;88.81;94978.16;4358815;32;20288;-59
2022/12/04 01:11:29;;;;;;;2.47;2.37;;;;;;;3.65;88.76;94986.25;4319014;32;20281;-59
2022/12/04 01:13:58;;;;;;;3.57;3.27;;;;;;;3.79;87.84;94976.84;4348669;32;20283;-59
2022/12/04 01:16:32;;;;;;;3.00;2.90;;;;;;;3.50;89.13;94983.59;4371204;32;20285;-59
2022/12/04 01:18:59;;;;;;;4.27;4.07;;;;;;;3.46;89.25;94983.31;4371494;32;20350;-59
2022/12/04 01:21:25;;;;;;;4.63;4.10;;;;;;;3.20;90.21;94984.22;4362619;32;20338;-59
2022/12/04 01:23:53;;;;;;;2.87;2.67;;;;;;;3.47;89.60;94999.81;4339539;32;20321;-59
2022/12/04 01:26:19;;;;;;;3.23;3.13;;;;;;;3.44;89.69;94994.03;4368624;32;20189;-59
2022/12/04 01:28:44;;;;;;;4.47;4.07;;;;;;;3.42;89.27;95001.37;4356700;32;20286;-60
2022/12/04 01:31:17;;;;;;;2.93;2.83;;;;;;;3.32;90.37;95000.56;4349671;32;20520;-59
2022/12/04 01:33:47;;;;;;;2.07;1.97;;;;;;;3.24;90.66;94986.09;4327441;32;20206;-59
2022/12/04 01:36:17;;;;;;;4.53;2.73;;;;;;;3.27;90.38;95006.56;4361480;32;20294;-59
2022/12/04 01:38:44;;;;;;;2.57;2.47;;;;;;;2.66;92.50;95006.19;4383940;32;20273;-59
2022/12/04 01:41:11;;;;;;;2.87;2.67;;;;;;;3.03;92.20;95005.38;4337099;32;20354;-59
2022/12/04 01:43:38;;;;;;;2.73;2.63;;;;;;;3.08;92.30;95006.19;4357740;32;20323;-59
2022/12/04 01:46:04;;;;;;;2.63;2.53;;;;;;;3.31;90.90;95005.00;4343339;32;20273;-60
2022/12/04 01:48:59;;;;;;;2.63;2.53;;;;;;;3.20;90.92;94985.03;4371037;32;20278;-59
2022/12/04 01:51:33;;;;;;;6.77;3.17;;;;;;;3.25;91.05;94986.88;4329126;32;20302;-59
2022/12/04 01:54:07;;;;;;;5.37;5.07;;;;;;;3.29;90.76;94983.50;4354110;32;20314;-59
2022/12/04 01:56:53;;;;;;;3.80;3.57;;;;;;;3.34;90.79;94985.34;4380177;32;20287;-60
2022/12/04 01:59:26;;;;;;;1.67;1.67;;;;;;;3.52;89.86;94976.25;4357788;32;20350;-59
2022/12/04 02:02:01;;;;;;;2.30;2.20;;;;;;;3.70;89.35;94970.53;4367945;32;20355;-60
2022/12/04 02:04:27;;;;;;;2.20;2.00;;;;;;;3.07;90.25;94954.06;4380585;32;20337;-59
2022/12/04 02:06:53;;;;;;;3.17;2.97;;;;;;;3.05;91.50;94962.16;4362335;32;20386;-59
2022/12/04 02:09:22;;;;;;;2.47;2.37;;;;;;;3.34;91.18;94959.12;4356339;32;20294;-60
2022/12/04 02:12:31;;;;;;;3.37;3.17;;;;;;;3.39;90.66;94973.03;4367636;32;20188;-59
2022/12/04 02:15:27;;;;;;;3.37;3.03;;;;;;;3.28;90.67;94976.69;4366597;32;20276;-59
2022/12/04 02:18:18;;;;;;;2.20;2.10;;;;;;;3.18;91.47;94988.94;4370270;32;20379;-60
2022/12/04 02:21:30;;;;;;;3.47;3.30;;;;;;;2.92;92.68;94985.37;4334239;32;20352;-59
2022/12/04 02:24:14;;;;;;;2.50;2.40;;;;;;;3.18;91.64;94970.59;4327608;32;20280;-59
2022/12/04 02:26:51;;;;;;;3.73;3.53;;;;;;;3.16;91.41;94962.97;4378399;32;20368;-59
2022/12/04 02:29:58;;;;;;;1.57;1.57;;;;;;;3.03;91.68;94952.97;4337857;32;20347;-59
2022/12/04 02:32:45;;;;;;;2.10;2.00;;;;;;;3.03;92.10;94955.59;4347211;32;20494;-60
2022/12/04 02:35:19;;;;;;;1.97;1.87;;;;;;;3.38;90.42;94953.13;4356053;32;20273;-59
2022/12/04 02:37:55;;;;;;;4.30;3.00;;;;;;;3.19;90.48;94946.75;4348706;32;20274;-60
2022/12/04 02:40:44;;;;;;;2.87;2.67;;;;;;;3.23;90.99;94939.97;4332220;32;20295;-60
2022/12/04 02:43:40;;;;;;;3.27;2.50;;;;;;;2.98;91.62;94952.94;4359047;32;20285;-59
2022/12/04 02:46:14;;;;;;;3.50;3.30;;;;;;;3.16;91.21;94941.22;4356289;32;20277;-59
2022/12/04 02:48:45;;;;;;;2.10;2.10;;;;;;;2.94;91.66;94938.78;4353012;32;20348;-59
2022/12/04 02:51:14;;;;;;;3.30;3.10;;;;;;;3.14;91.01;94930.22;4358898;32;20315;-60
2022/12/04 02:53:46;;;;;;;2.47;2.30;;;;;;;3.21;91.13;94944.66;4356362;32;20283;-59
2022/12/04 02:56:20;;;;;;;2.47;2.13;;;;;;;3.41;90.15;94926.41;4337817;32;20325;-60
2022/12/04 02:58:52;;;;;;;3.20;2.97;;;;;;;3.28;89.87;94940.00;4364677;32;20277;-59
2022/12/04 03:01:24;;;;;;;3.07;2.87;;;;;;;2.88;90.95;94937.19;4385016;32;20293;-59
2022/12/04 03:04:17;;;;;;;2.33;2.17;;;;;;;3.02;90.94;94933.06;4341525;32;20273;-59
2022/12/04 03:06:48;;;;;;;3.83;2.97;;;;;;;2.81;91.85;94934.78;4358715;32;20413;-60
2022/12/04 03:09:24;;;;;;;3.50;3.30;;;;;;;2.86;91.48;94931.41;4366398;32;20319;-60
2022/12/04 03:11:56;;;;;;;3.63;3.40;;;;;;;2.83;91.80;94937.94;4353229;32;20281;-60
2022/12/04 03:14:31;;;;;;;3.43;3.23;;;;;;;2.86;91.97;94926.19;4364400;32;20354;-59
2022/12/04 03:17:04;;;;;;;2.43;1.87;;;;;;;2.91;91.29;94934.06;4344860;32;20317;-59
2022/12/04 03:19:40;;;;;;;2.77;2.63;;;;;;;2.93;91.49;94930.13;4371742;32;20283;-59
2022/12/04 03:22:11;;;;;;;3.93;3.73;;;;;;;2.89;91.79;94931.69;4338287;32;20299;-59
2022/12/04 03:24:41;;;;;;;3.43;3.13;;;;;;;3.03;91.66;94929.41;4352533;32;20281;-59
2022/12/04 03:27:14;;;;;;;2.83;2.67;;;;;;;2.97;91.70;94925.97;4334217;32;20307;-59
2022/12/04 03:30:14;;;;;;;2.93;2.63;;;;;;;3.04;91.12;94923.13;4361276;32;20273;-60
2022/12/04 03:33:11;;;;;;;2.27;2.17;;;;;;;3.00;91.47;94930.69;4352599;32;20344;-60
2022/12/04 03:35:41;;;;;;;2.13;2.03;;;;;;;3.08;91.18;94926.81;4353450;32;20284;-59
2022/12/04 03:38:44;;;;;;;6.83;2.93;;;;;;;3.10;91.33;94932.59;4356866;32;20320;-60
2022/12/04 03:41:30;;;;;;;3.57;2.43;;;;;;;2.98;91.86;94930.16;4325760;32;20285;-59
2022/12/04 03:44:13;;;;;;;2.37;2.27;;;;;;;3.03;91.61;94932.81;4356011;32;20275;-59
2022/12/04 03:46:49;;;;;;;2.13;2.03;;;;;;;3.01;91.48;94928.88;4392343;32;20281;-60
2022/12/04 03:49:24;;;;;;;3.77;2.77;;;;;;;3.22;90.85;94924.50;4331888;32;20301;-59
2022/12/04 03:52:06;;;;;;;2.37;2.27;;;;;;;3.10;91.72;94922.09;4361521;32;20289;-60
2022/12/04 03:54:40;;;;;;;3.17;2.97;;;;;;;3.09;91.58;94921.31;4359277;32;20288;-59
2022/12/04 03:57:14;;;;;;;3.77;2.60;;;;;;;3.23;90.88;94918.22;4351779;32;20285;-59
2022/12/04 03:59:48;;;;;;;3.80;3.47;;;;;;;3.22;90.83;94911.38;4355218;32;20277;-59
2022/12/04 04:02:19;;;;;;;5.17;3.40;;;;;;;3.07;91.53;94918.16;4378968;32;20321;-59
2022/12/04 04:04:51;;;;;;;2.87;2.70;;;;;;;3.22;91.26;94906.94;4340948;32;20315;-59
2022/12/04 04:07:41;;;;;;;2.17;2.07;;;;;;;3.28;90.55;94908.53;4374481;32;20276;-59
2022/12/04 04:10:14;;;;;;;1.47;1.40;;;;;;;3.17;91.19;94906.12;4367968;32;20279;-59
2022/12/04 04:24:12;;;;;;;3.97;3.77;;;;;;;3.35;90.54;94903.81;4362989;32;20269;-59
2022/12/04 04:24:26;;;;;;;2.57;2.47;;;;;;;3.01;91.05;94907.91;4341183;32;20314;-59
2022/12/04 04:26:54;;;;;;;3.10;2.87;;;;;;;2.84;91.36;94905.47;4378406;32;20308;-59
2022/12/04 04:29:20;;;;;;;2.80;2.70;;;;;;;2.86;92.53;94906.00;4347060;32;20343;-59
2022/12/04 04:32:13;;;;;;;1.30;1.30;;;;;;;2.73;93.00;94902.00;4331277;32;20282;-59
2022/12/04 04:35:16;;;;;;;2.20;1.83;;;;;;;2.47;93.94;94902.13;4346771;32;20211;-59
2022/12/04 04:38:12;;;;;;;2.83;2.57;;;;;;;2.53;94.36;94906.34;4355307;32;20352;-60
2022/12/04 04:41:08;;;;;;;2.63;2.53;;;;;;;2.85;93.31;94901.81;4366341;32;20290;-59
2022/12/04 04:43:54;;;;;;;2.13;2.03;;;;;;;3.08;92.49;94903.22;4364507;32;20322;-59
2022/12/04 04:46:27;;;;;;;2.97;2.80;;;;;;;3.02;91.81;94904.25;4359178;32;20303;-59
2022/12/04 04:48:58;;;;;;;1.97;1.97;;;;;;;3.13;90.91;94900.59;4365708;32;20428;-59
2022/12/04 04:51:27;;;;;;;3.53;3.33;;;;;;;3.12;91.37;94900.88;4347216;32;20338;-59
2022/12/04 04:53:57;;;;;;;2.83;2.63;;;;;;;3.14;91.04;94902.19;4337843;32;20360;-59
2022/12/04 04:56:23;;;;;;;2.13;2.03;;;;;;;3.18;90.75;94898.00;4371357;32;20389;-60
2022/12/04 04:58:49;;;;;;;3.27;3.07;;;;;;;3.20;90.86;94890.69;4365757;32;20329;-59
2022/12/04 05:01:18;;;;;;;2.53;2.43;;;;;;;3.34;90.12;94886.53;4331905;32;20299;-59
2022/12/04 05:03:43;;;;;;;2.50;2.33;;;;;;;3.20;90.63;94889.88;4375984;32;20182;-60
2022/12/04 05:06:10;;;;;;;3.00;2.90;;;;;;;3.11;91.17;94894.84;4353441;32;20311;-60
2022/12/04 05:08:36;;;;;;;2.37;2.27;;;;;;;3.21;90.93;94896.72;4372912;32;20195;-59
2022/12/04 05:11:16;;;;;;;2.77;2.60;;;;;;;3.20;90.58;94909.03;4367820;32;20285;-59
2022/12/04 05:13:42;;;;;;;3.17;2.97;;;;;;;3.29;90.14;94899.63;4381287;32;20192;-59
2022/12/04 05:16:10;;;;;;;2.50;2.20;;;;;;;3.32;90.09;94900.94;4350445;32;20277;-59
2022/12/04 05:18:36;;;;;;;6.13;3.33;;;;;;;3.42;90.11;94900.97;4373416;32;20193;-59
2022/12/04 05:21:15;;;;;;;2.47;2.37;;;;;;;3.14;90.71;94896.16;4357368;32;20282;-66
2022/12/04 05:23:40;;;;;;;2.10;2.00;;;;;;;3.38;90.30;94894.66;4360950;32;20176;-60
2022/12/04 05:26:05;;;;;;;2.10;2.03;;;;;;;3.42;89.84;94883.41;4357773;32;20345;-59
2022/12/04 05:28:31;;;;;;;2.70;2.60;;;;;;;3.38;90.25;94871.84;4379356;32;20247;-59
2022/12/04 05:31:02;;;;;;;2.37;2.23;;;;;;;3.42;89.74;94893.87;4354532;32;20264;-59
2022/12/04 05:33:29;;;;;;;4.20;4.00;;;;;;;3.38;89.75;94886.78;4329989;32;20241;-59
2022/12/04 05:36:04;;;;;;;2.93;2.77;;;;;;;3.44;89.74;94889.19;4362968;32;20393;-59
2022/12/04 05:38:34;;;;;;;2.90;2.80;;;;;;;3.29;90.31;94898.84;4350525;32;20284;-60
2022/12/04 05:41:01;;;;;;;2.93;2.73;;;;;;;3.45;89.79;94903.88;4362854;32;20326;-59
2022/12/04 05:43:28;;;;;;;2.37;2.27;;;;;;;3.66;88.98;94898.66;4344854;32;20277;-60
2022/12/04 05:45:53;;;;;;;4.13;3.13;;;;;;;3.34;90.24;94902.25;4368050;32;20360;-59
2022/12/04 05:48:19;;;;;;;4.07;2.33;;;;;;;3.41;89.74;94912.50;4326122;32;20324;-59
2022/12/04 05:50:44;;;;;;;3.93;3.73;;;;;;;3.55;89.02;94910.16;4340822;32;20194;-59
2022/12/04 05:53:10;;;;;;;3.10;2.90;;;;;;;3.44;89.12;94902.28;4381912;32;20260;-59
2022/12/04 05:55:36;;;;;;;3.27;3.07;;;;;;;3.43;89.92;94905.94;4372319;32;20189;-63
2022/12/04 05:58:02;;;;;;;2.37;2.27;;;;;;;3.54;89.42;94898.88;4383285;32;20181;-59
2022/12/04 06:00:29;;;;;;;3.67;2.83;;;;;;;3.70;88.78;94889.22;4359223;32;20308;-59
2022/12/04 06:02:55;;;;;;;2.70;2.60;;;;;;;3.45;89.88;94888.13;4375860;32;20189;-59
2022/12/04 06:05:22;;;;;;;6.17;3.80;;;;;;;3.49;89.75;94885.00;4369349;32;20299;-59
2022/12/04 06:07:48;;;;;;;3.03;2.87;;;;;;;3.65;89.38;94889.22;4374284;32;20192;-59
2022/12/04 06:10:15;;;;;;;3.30;3.10;;;;;;;3.54;89.53;94887.59;4385108;32;20272;-59
2022/12/04 06:12:41;;;;;;;2.30;2.20;;;;;;;3.45;90.15;94877.66;4368276;32;20356;-59
2022/12/04 06:15:11;;;;;;;1.93;1.90;;;;;;;3.69;89.19;94871.91;4314904;32;20297;-59
2022/12/04 06:17:37;;;;;;;2.80;2.70;;;;;;;3.77;88.39;94879.25;4337219;32;20272;-59
2022/12/04 06:20:04;;;;;;;3.70;3.50;;;;;;;3.58;88.74;94883.44;4365530;32;20371;-59
2022/12/04 06:22:29;;;;;;;2.93;2.17;;;;;;;3.63;89.09;94884.22;4346808;32;20320;-59
2022/12/04 06:24:59;;;;;;;3.17;2.97;;;;;;;3.63;89.11;94883.44;4359051;32;20395;-59
2022/12/04 06:27:29;;;;;;;2.60;2.37;;;;;;;3.23;90.65;94889.38;4377057;32;20260;-59
2022/12/04 06:29:54;;;;;;;4.37;3.73;;;;;;;3.16;91.47;94901.94;4358120;32;20270;-59
2022/12/04 06:32:22;;;;;;;2.77;2.67;;;;;;;2.93;92.68;94900.53;4341110;32;20288;-59
2022/12/04 06:34:52;;;;;;;1.27;1.27;;;;;;;3.03;92.94;94908.44;4339666;32;20258;-59
2022/12/04 06:37:20;;;;;;;4.17;3.60;;;;;;;3.05;92.77;94893.25;4309255;32;20326;-59
2022/12/04 06:39:49;;;;;;;3.67;3.47;;;;;;;2.91;93.56;94898.16;4347645;32;20356;-59
2022/12/04 06:42:16;;;;;;;3.43;3.27;;;;;;;2.98;93.42;94888.25;4356084;32;20346;-59
2022/12/04 06:44:43;;;;;;;3.77;3.57;;;;;;;2.94;93.14;94891.63;4350325;32;20289;-59
2022/12/04 06:47:10;;;;;;;9.97;3.93;;;;;;;2.80;94.14;94901.78;4352761;32;20277;-60
2022/12/04 06:49:35;;;;;;;2.90;2.67;;;;;;;3.03;93.79;94892.72;4344902;32;20280;-59
2022/12/04 06:52:02;;;;;;;5.00;3.93;;;;;;;3.24;92.80;94906.69;4321528;32;20375;-59
2022/12/04 06:54:29;;;;;;;2.77;2.67;;;;;;;3.29;91.73;94883.91;4369874;32;20264;-59
2022/12/04 06:56:54;;;;;;;7.30;3.77;;;;;;;3.21;92.12;94888.84;4372546;32;20299;-59
2022/12/04 06:59:19;;;;;;;3.90;3.63;;;;;;;3.22;91.78;94885.97;4370930;32;20269;-60
2022/12/04 07:01:46;;;;;;;4.60;4.07;;;;;;;3.26;91.73;94875.75;4376996;32;20184;-59
2022/12/04 07:04:12;;;;;;;4.33;4.13;;;;;;;3.43;91.30;94890.22;4371056;32;20172;-59
2022/12/04 07:06:38;;;;;;;6.10;3.10;;;;;;;3.28;91.10;94895.44;4368602;32;20280;-59
2022/12/04 07:09:13;;;;;;;2.47;2.37;;;;;;;3.19;91.58;94894.34;4385026;32;20272;-60
2022/12/04 07:11:41;;;;;;;4.33;4.03;;;;;;;3.34;91.24;94907.50;4363397;32;20284;-59
2022/12/04 07:14:10;;;;;;;5.17;3.70;;;;;;;3.36;91.04;94915.09;4350360;32;20280;-59
2022/12/04 07:16:38;;;;;;;4.33;4.03;;;;;;;3.30;91.29;94910.91;4361884;32;20270;-60
2022/12/04 07:19:04;;;;;;;4.27;3.97;;;;;;;3.29;90.80;94891.78;4378066;32;20288;-60
2022/12/04 07:21:30;;;;;;;10.17;3.27;;;;;;;3.25;91.02;94888.09;4346174;32;20332;-59
2022/12/04 07:24:00;;;;;;;2.13;2.03;;;;;;;3.01;92.16;94897.44;4385826;32;20191;-59
2022/12/04 07:26:28;;;;;;;3.13;3.03;;;;;;;2.93;91.71;94897.91;4343308;32;20299;-59
2022/12/04 07:28:55;;;;;;;2.27;2.10;;;;;;;2.97;92.28;94912.88;4368716;32;20496;-59
2022/12/04 07:31:22;;;;;;;2.80;2.60;;;;;;;3.16;92.08;94909.78;4364311;32;20326;-59
2022/12/04 07:33:49;;;;;;;3.77;2.07;;;;;;;3.02;92.02;94910.28;4366893;32;20334;-60
2022/12/04 07:36:18;;;;;;;3.03;2.77;;;;;;;3.30;91.38;94906.44;4354035;32;20287;-60
2022/12/04 07:38:45;;;;;;;3.17;3.03;;;;;;;3.21;90.94;94907.97;4338111;32;20295;-59
2022/12/04 07:41:12;;;;;;;2.47;2.40;;;;;;;2.95;92.25;94909.72;4351591;32;20277;-60
2022/12/04 07:43:39;;;;;;;3.57;3.37;;;;;;;3.01;92.33;94921.00;4345950;32;20285;-60
2022/12/04 07:46:08;;;;;;;4.37;3.30;;;;;;;3.03;92.50;94922.31;4337599;32;20395;-60
2022/12/04 07:48:33;;;;;;;2.93;2.80;;;;;;;2.92;93.14;94904.97;4346946;32;20285;-63
2022/12/04 07:51:22;;;;;;;1.93;1.87;;;;;;;2.86;93.39;94894.75;4356995;32;20272;-60
2022/12/04 07:53:52;;;;;;;2.07;2.00;;;;;;;2.75;93.85;94905.16;4362320;32;20185;-59
2022/12/04 07:56:19;;;;;;;3.00;2.80;;;;;;;2.84;93.88;94902.84;4380829;32;20291;-60
2022/12/04 07:58:44;;;;;;;2.37;2.17;;;;;;;2.79;94.00;94909.91;4365217;32;20285;-60
2022/12/04 08:01:22;;;;;;;2.13;2.10;;;;;;;2.73;94.70;94911.69;4377613;32;20276;-59
2022/12/04 08:03:50;;;;;;;3.13;2.93;;;;;;;3.08;93.75;94918.94;4354869;32;20212;-59
2022/12/04 08:06:18;;;;;;;2.73;2.43;;;;;;;3.01;93.56;94903.44;4374625;32;20282;-59
2022/12/04 08:08:46;;;;;;;2.37;2.23;;;;;;;3.03;93.40;94896.13;4342845;32;20280;-60
2022/12/04 08:11:15;;;;;;;2.40;1.70;;;;;;;2.86;94.45;94910.47;4371659;32;20289;-59
2022/12/04 08:13:43;;;;;;;3.57;3.27;;;;;;;3.05;94.19;94908.97;4366493;32;20279;-59
2022/12/04 08:16:10;;;;;;;3.83;3.50;;;;;;;3.06;94.28;94895.63;4378207;32;20260;-59
2022/12/04 08:18:36;;;;;;;3.60;3.43;;;;;;;2.91;94.57;94889.53;4348256;32;20288;-59
2022/12/04 08:21:13;;;;;;;2.33;2.23;;;;;;;2.75;95.55;94893.91;4361648;32;20277;-60
2022/12/04 08:23:41;;;;;;;3.23;3.03;;;;;;;2.65;96.14;94909.56;4350828;32;20272;-60
2022/12/04 08:26:09;;;;;;;3.10;2.93;;;;;;;2.91;95.74;94907.88;4350988;32;20276;-60
2022/12/04 08:28:36;;;;;;;2.67;2.53;;;;;;;3.10;94.87;94901.94;4362686;32;20265;-61
2022/12/04 08:31:23;;;;;;;3.93;3.73;;;;;;;3.06;94.92;94900.84;4384134;32;20350;-60
2022/12/04 08:33:52;;;;;;;3.20;3.00;;;;;;;3.11;94.57;94897.47;4364919;32;20281;-60
2022/12/04 08:36:20;;;;;;;2.47;2.27;;;;;;;3.19;94.22;94909.28;4359244;32;20288;-59
2022/12/04 08:38:46;;;;;;;4.33;4.03;;;;;;;3.26;94.22;94905.38;4330709;32;20285;-59
2022/12/04 08:41:13;;;;;;;3.77;3.57;;;;;;;3.40;94.31;94898.59;4363190;32;20297;-59
2022/12/04 08:43:39;;;;;;;5.80;3.87;;;;;;;3.20;94.36;94911.66;4356234;32;20280;-59
2022/12/04 08:46:09;;;;;;;3.00;2.80;;;;;;;3.28;94.15;94921.66;4375997;32;20288;-60
2022/12/04 08:48:36;;;;;;;2.37;2.27;;;;;;;3.21;94.50;94922.91;4352621;32;20348;-60
2022/12/04 08:51:03;;;;;;;3.17;3.07;;;;;;;3.19;94.40;94917.13;4365727;32;20273;-60
2022/12/04 08:53:30;;;;;;;5.33;4.03;;;;;;;3.30;94.56;94922.19;4372493;32;20322;-59
2022/12/04 08:56:00;;;;;;;2.83;2.63;;;;;;;3.53;93.81;94914.91;4358074;32;20313;-60
2022/12/04 08:58:25;;;;;;;3.37;3.07;;;;;;;3.51;93.33;94911.75;4344784;32;20389;-59
2022/12/04 09:04:14;;;;;;;1.60;1.50;;;;;;;3.34;93.02;94914.56;4363336;32;20338;-60
2022/12/04 09:06:41;;;;;;;1.97;1.87;;;;;;;3.17;94.37;94906.91;4370786;32;20323;-59
2022/12/04 09:09:07;;;;;;;3.07;2.37;;;;;;;3.51;93.59;94901.25;4350732;32;20297;-59
2022/12/04 09:11:35;;;;;;;3.63;3.27;;;;;;;3.60;93.22;94905.72;4335530;32;20328;-66
2022/12/04 09:14:02;;;;;;;3.13;2.97;;;;;;;3.37;93.64;94924.53;4354549;32;20233;-60
2022/12/04 09:16:28;;;;;;;3.03;2.83;;;;;;;3.53;93.69;94914.91;4360602;32;20335;-60
2022/12/04 09:18:55;;;;;;;2.73;2.57;;;;;;;3.70;93.48;94923.31;4367188;32;20330;-60
2022/12/04 09:21:22;;;;;;;1.50;1.50;;;;;;;3.80;92.58;94923.31;4357598;32;20292;-60
2022/12/04 09:23:48;;;;;;;3.30;2.93;;;;;;;3.50;93.40;94925.91;4366327;32;20303;-60
2022/12/04 09:26:23;;;;;;;2.83;2.73;;;;;;;3.71;93.15;94932.78;4371381;32;20285;-60
2022/12/04 09:28:49;;;;;;;3.50;3.40;;;;;;;3.57;93.01;94921.19;4371471;32;20202;-59
2022/12/04 09:31:17;;;;;;;2.13;2.13;;;;;;;3.66;92.98;94914.41;4359337;32;20277;-60
2022/12/04 09:33:44;;;;;;;4.20;3.90;;;;;;;3.48;93.77;94917.50;4366034;32;20233;-60
2022/12/04 09:36:14;;;;;;;2.17;1.97;;;;;;;3.56;93.51;94893.38;4361370;32;20285;-43
2022/12/04 09:38:44;;;;;;;4.90;3.93;;;;;;;4.21;98.99;94882.16;4375304;32;20277;-43
2022/12/04 09:41:40;;;;;;;1.83;1.70;;;;;;;6.87;100.00;94863.47;4353095;32;20305;-44
2022/12/04 09:44:15;;;;;;;3.43;2.67;;;;;;;8.06;100.00;94859.00;4339242;32;20281;-48
2022/12/04 09:47:04;;;;;;;2.77;2.63;;;;;;;8.79;100.00;94860.94;4382303;32;20286;-45
2022/12/04 09:49:58;;;;;;;3.13;2.93;;;;;;;9.21;100.00;94858.00;4307282;32;20355;-46
2022/12/04 09:52:46;;;;;;;4.13;3.53;;;;;;;9.72;100.00;94849.00;4354519;32;20419;-42
2022/12/04 09:55:27;;;;;;;2.97;2.77;;;;;;;10.08;99.39;94872.03;4352697;32;20207;-44
2022/12/04 09:57:58;;;;;;;2.87;2.70;;;;;;;10.11;91.45;94884.66;4370311;32;20260;-44
2022/12/04 10:00:26;;;;;;;6.50;3.60;;;;;;;10.66;87.03;94879.91;4368067;32;20292;-42
2022/12/04 10:02:59;;;;;;;2.40;2.20;;;;;;;10.95;81.54;94877.56;4340075;32;20184;-45
2022/12/04 10:05:49;;;;;;;2.73;2.63;;;;;;;10.83;75.89;94884.50;4364254;32;20188;-60
2022/12/04 10:08:27;;;;;;;2.30;2.20;;;;;;;10.25;67.14;94872.94;4338717;32;20223;-60
2022/12/04 10:11:37;;;;;;;2.83;2.73;;;;;;;8.55;68.85;94861.09;4363266;32;20303;-60
2022/12/04 10:14:26;;;;;;;2.00;1.90;;;;;;;7.34;73.79;94856.59;4338570;32;20204;-61
2022/12/04 10:17:37;;;;;;;2.30;2.10;;;;;;;6.16;79.39;94843.13;4339002;32;20209;-60
2022/12/04 10:20:57;;;;;;;2.40;2.30;;;;;;;5.58;82.05;94839.59;4227399;33;20199;-60
2022/12/04 10:23:45;;;;;;;2.43;2.23;;;;;;;5.15;84.30;94835.91;4284323;33;20298;-60
2022/12/04 10:26:15;;;;;;;1.57;1.47;;;;;;;4.41;87.72;94847.19;4302042;33;20294;-60
2022/12/04 10:29:15;;;;;;;2.23;2.03;;;;;;;4.31;89.44;94862.97;4304937;32;20283;-60
2022/12/04 10:31:44;;;;;;;4.33;4.03;;;;;;;4.36;89.92;94870.84;4341542;32;20354;-60
2022/12/04 10:34:29;;;;;;;2.53;2.43;;;;;;;4.53;89.69;94852.97;4367625;32;20300;-60
2022/12/04 10:37:10;;;;;;;2.57;2.47;;;;;;;4.12;91.23;94834.66;4350876;32;20285;-60
2022/12/04 10:39:43;;;;;;;2.40;2.20;;;;;;;4.43;90.71;94824.88;4347211;32;20323;-60
2022/12/04 10:42:42;;;;;;;2.40;2.30;;;;;;;4.22;91.12;94822.56;4366264;32;20285;-60
2022/12/04 10:45:11;;;;;;;3.57;3.27;;;;;;;4.05;92.45;94823.63;4347597;32;20388;-60
2022/12/04 10:47:42;;;;;;;2.60;2.50;;;;;;;4.20;92.42;94803.66;4358249;32;20300;-60
2022/12/04 10:50:17;;;;;;;2.23;2.13;;;;;;;4.08;91.99;94807.38;4352973;32;20293;-60
2022/12/04 10:52:43;;;;;;;2.07;1.97;;;;;;;3.93;93.03;94811.84;4358393;32;20633;-60
2022/12/04 10:55:10;;;;;;;4.27;3.97;;;;;;;4.31;91.88;94800.75;4357931;32;20282;-60
2022/12/04 10:57:45;;;;;;;2.07;1.97;;;;;;;4.40;91.12;94798.34;4368341;32;20188;-60
2022/12/04 11:00:33;;;;;;;4.10;3.70;;;;;;;4.25;91.23;94798.41;4377785;32;20281;-60
2022/12/04 11:03:01;;;;;;;2.67;2.57;;;;;;;4.33;91.99;94808.38;4329486;32;20292;-60
2022/12/04 11:05:59;;;;;;;2.83;2.53;;;;;;;4.37;91.60;94793.63;4345117;32;20282;-60
2022/12/04 11:08:52;;;;;;;2.30;2.30;;;;;;;4.47;91.44;94783.12;4349422;32;20383;-60
2022/12/04 11:11:24;;;;;;;3.30;3.03;;;;;;;4.31;92.05;94786.84;4343520;32;20296;-60
2022/12/04 11:14:03;;;;;;;3.60;3.30;;;;;;;4.37;92.17;94793.63;4354169;32;20277;-60
2022/12/04 11:16:52;;;;;;;3.07;2.87;;;;;;;4.45;92.42;94798.34;4355338;32;20393;-60
2022/12/04 11:19:30;;;;;;;5.90;3.07;;;;;;;4.68;91.42;94797.75;4378167;32;20285;-60
2022/12/04 11:22:13;;;;;;;3.37;2.93;;;;;;;5.04;89.78;94781.81;4336297;32;20364;-59
2022/12/04 11:24:41;;;;;;;4.13;3.70;;;;;;;5.03;89.56;94796.00;4362072;32;20291;-60
2022/12/04 11:27:23;;;;;;;2.60;2.50;;;;;;;4.84;89.97;94820.28;4375690;32;20297;-60
2022/12/04 11:29:49;;;;;;;2.93;2.77;;;;;;;4.96;90.20;94827.06;4355431;32;20289;-59
2022/12/04 11:32:32;;;;;;;3.13;3.03;;;;;;;5.29;88.65;94825.56;4376429;32;20293;-60
2022/12/04 11:35:06;;;;;;;6.33;3.67;;;;;;;4.88;89.77;94815.25;4368501;32;20273;-60
2022/12/04 11:37:34;;;;;;;3.03;2.83;;;;;;;4.87;90.35;94802.41;4380707;32;20299;-60
2022/12/04 11:40:03;;;;;;;3.53;3.27;;;;;;;4.89;90.68;94806.34;4364435;32;20341;-60
2022/12/04 11:42:30;;;;;;;3.57;3.27;;;;;;;5.06;90.04;94798.88;4337975;32;20278;-60
2022/12/04 11:44:58;;;;;;;2.83;2.63;;;;;;;5.02;90.23;94789.19;4373198;32;20287;-60
2022/12/04 11:47:27;;;;;;;3.60;3.30;;;;;;;5.25;88.90;94782.47;4371314;32;20490;-60
2022/12/04 11:50:15;;;;;;;1.60;1.53;;;;;;;4.69;90.23;94791.44;4342972;32;21499;-60
2022/12/04 11:52:59;;;;;;;4.60;2.47;;;;;;;4.83;90.57;94789.00;4363802;32;20276;-60
2022/12/04 11:55:39;;;;;;;2.47;1.63;;;;;;;4.71;90.90;94794.59;4366435;32;20323;-60
2022/12/04 11:58:26;;;;;;;1.57;1.50;;;;;;;4.79;90.53;94790.59;4349840;32;20289;-60
2022/12/04 12:01:25;;;;;;;2.10;2.00;;;;;;;5.13;89.86;94790.72;4360506;32;20281;-60
2022/12/04 12:04:04;;;;;;;3.60;3.30;;;;;;;5.53;87.83;94766.75;4367921;32;20273;-60
2022/12/04 12:06:47;;;;;;;3.23;2.33;;;;;;;5.64;86.95;94759.56;4364311;32;20294;-60
2022/12/04 12:09:35;;;;;;;3.40;3.20;;;;;;;5.18;88.54;94762.56;4312137;32;20278;-60
2022/12/04 12:12:17;;;;;;;3.13;2.93;;;;;;;5.64;87.32;94764.03;4360300;32;20284;-60
2022/12/04 12:15:20;;;;;;;2.87;2.47;;;;;;;5.65;87.26;94755.09;4353265;32;20275;-60
2022/12/04 12:18:22;;;;;;;2.33;2.23;;;;;;;4.97;89.26;94760.31;4351402;32;20292;-60
2022/12/04 12:21:28;;;;;;;2.40;2.30;;;;;;;5.03;89.80;94756.56;4357913;32;20279;-60
2022/12/04 12:24:12;;;;;;;3.00;2.90;;;;;;;4.87;90.60;94763.78;4314988;32;20364;-60
2022/12/04 12:26:54;;;;;;;2.97;2.80;;;;;;;4.67;91.74;94756.78;4353959;32;20280;-60